createdAt,value
2022-12-01T00:01:54.519Z,102884.47
2022-12-01T00:04:23.169Z,102888.88
2022-12-01T00:06:55.593Z,102888.16
2022-12-01T00:09:42.527Z,102887.25
2022-12-01T00:12:10.836Z,102877.63
2022-12-01T00:14:39.198Z,102874.91
2022-12-01T00:17:07.515Z,102878.41
2022-12-01T00:19:36.255Z,102879.25
2022-12-01T00:22:04.621Z,102869.69
2022-12-01T00:24:33.596Z,102879.25
2022-12-01T00:27:03.138Z,102866.28
2022-12-01T00:29:31.491Z,102869.78
2022-12-01T00:32:00.241Z,102873.19
2022-12-01T00:34:28.861Z,102870.56
2022-12-01T00:36:57.292Z,102880.13
2022-12-01T00:39:25.648Z,102885.38
2022-12-01T00:41:54.061Z,102876.72
2022-12-01T00:44:22.468Z,102881.13
2022-12-01T00:46:50.858Z,102886.44
2022-12-01T00:49:19.239Z,102886.44
2022-12-01T00:51:47.626Z,102882.00
2022-12-01T00:54:15.972Z,102882.84
2022-12-01T00:56:44.902Z,102888.06
2022-12-01T00:59:13.739Z,102881.03
2022-12-01T01:01:42.165Z,102873.13
2022-12-01T01:04:10.562Z,102877.44
2022-12-01T01:06:39.676Z,102882.75
2022-12-01T01:09:08.105Z,102883.66
2022-12-01T01:11:36.749Z,102884.56
2022-12-01T01:14:06.568Z,102881.03
2022-12-01T01:16:35.961Z,102882.75
2022-12-01T01:19:04.426Z,102880.13
2022-12-01T01:21:33.911Z,102878.34
2022-12-01T01:24:02.273Z,102878.34
2022-12-01T01:26:31.838Z,102889.78
2022-12-01T01:29:03.085Z,102884.56
2022-12-01T01:31:31.474Z,102893.41
2022-12-01T01:33:59.907Z,102893.41
2022-12-01T01:36:28.352Z,102886.44
2022-12-01T01:38:56.904Z,102887.34
2022-12-01T01:41:26.918Z,102889.16
2022-12-01T01:43:57.449Z,102906.63
2022-12-01T01:46:36.126Z,102895.28
2022-12-01T01:49:14.559Z,102895.19
2022-12-01T01:52:08.936Z,102894.19
2022-12-01T01:54:42.458Z,102893.31
2022-12-01T01:57:14.804Z,102895.81
2022-12-01T01:59:49.167Z,102899.16
2022-12-01T02:02:17.709Z,102895.72
2022-12-01T02:04:51.450Z,102894.03
2022-12-01T02:07:20.769Z,102904.56
2022-12-01T02:09:49.941Z,102903.84
2022-12-01T02:12:50.052Z,102896.00
2022-12-01T02:15:39.102Z,102898.72
2022-12-01T02:18:27.784Z,102889.94
2022-12-01T02:21:14.417Z,102893.41
2022-12-01T02:24:02.027Z,102892.56
2022-12-01T02:26:46.694Z,102888.25
2022-12-01T02:29:46.309Z,102883.03
2022-12-01T02:32:52.602Z,102886.53
2022-12-01T02:35:35.039Z,102889.16
2022-12-01T02:38:12.993Z,102886.53
2022-12-01T02:41:20.340Z,102888.31
2022-12-01T02:44:09.124Z,102884.91
2022-12-01T02:46:41.910Z,102886.63
2022-12-01T02:52:46.510Z,102899.84
2022-12-01T02:55:14.810Z,102888.59
2022-12-01T02:57:43.124Z,102880.66
2022-12-01T03:00:13.850Z,102881.56
2022-12-01T03:02:54.541Z,102873.81
2022-12-01T03:05:35.746Z,102878.94
2022-12-01T03:08:46.145Z,102871.00
2022-12-01T03:11:28.804Z,102878.84
2022-12-01T03:14:24.520Z,102885.91
2022-12-01T03:16:54.576Z,102877.25
2022-12-01T03:19:35.142Z,102881.56
2022-12-01T03:22:27.198Z,102879.88
2022-12-01T03:24:57.424Z,102879.03
2022-12-01T03:27:31.490Z,102878.25
2022-12-01T03:30:02.475Z,102873.91
2022-12-01T03:32:41.388Z,102877.41
2022-12-01T03:35:19.554Z,102875.69
2022-12-01T03:37:54.781Z,102870.44
2022-12-01T03:40:30.789Z,102883.53
2022-12-01T03:43:03.787Z,102882.63
2022-12-01T03:45:35.453Z,102880.03
2022-12-01T03:48:04.546Z,102877.59
2022-12-01T03:50:59.725Z,102867.84
2022-12-01T03:53:35.524Z,102875.69
2022-12-01T03:56:07.161Z,102880.13
2022-12-01T03:58:43.005Z,102872.28
2022-12-01T04:01:12.151Z,102870.53
2022-12-01T04:03:41.008Z,102881.09
2022-12-01T04:06:10.323Z,102880.31
2022-12-01T04:08:39.729Z,102877.59
2022-12-01T04:11:32.422Z,102874.97
2022-12-01T04:14:02.039Z,102873.06
2022-12-01T04:16:31.126Z,102878.28
2022-12-01T04:18:59.656Z,102874.88
2022-12-01T04:21:28.458Z,102872.19
2022-12-01T04:24:00.146Z,102875.78
2022-12-01T04:26:32.282Z,102875.88
2022-12-01T04:29:02.039Z,102882.09
2022-12-01T04:31:31.080Z,102888.22
2022-12-01T04:34:00.124Z,102877.75
2022-12-01T04:36:31.438Z,102873.44
2022-12-01T04:39:00.541Z,102882.09
2022-12-01T04:41:29.002Z,102882.97
2022-12-01T04:43:57.463Z,102881.28
2022-12-01T04:46:26.140Z,102885.69
2022-12-01T04:48:54.640Z,102878.66
2022-12-01T04:51:26.598Z,102888.31
2022-12-01T04:53:55.877Z,102886.59
2022-12-01T04:56:24.759Z,102885.69
2022-12-01T04:58:54.134Z,102881.38
2022-12-01T05:01:22.503Z,102883.06
2022-12-01T05:03:50.999Z,102885.69
2022-12-01T05:06:23.367Z,102885.69
2022-12-01T05:08:54.336Z,102880.44
2022-12-01T05:11:23.704Z,102890.91
2022-12-01T05:13:52.122Z,102884.78
2022-12-01T05:16:32.079Z,102887.41
2022-12-01T05:19:21.433Z,102886.50
2022-12-01T05:21:51.176Z,102884.78
2022-12-01T05:24:21.177Z,102882.09
2022-12-01T05:26:50.398Z,102890.81
2022-12-01T05:29:19.888Z,102883.91
2022-12-01T05:31:49.162Z,102885.69
2022-12-01T05:34:17.709Z,102892.63
2022-12-01T05:36:46.476Z,102881.19
2022-12-01T05:39:14.939Z,102881.28
2022-12-01T05:41:43.426Z,102886.59
2022-12-01T05:44:11.999Z,102881.38
2022-12-01T05:46:40.371Z,102881.44
2022-12-01T05:49:11.017Z,102890.22
2022-12-01T05:51:39.449Z,102894.50
2022-12-01T05:54:07.743Z,102895.44
2022-12-01T05:56:38.191Z,102893.63
2022-12-01T05:59:07.840Z,102889.28
2022-12-01T06:01:36.346Z,102884.06
2022-12-01T06:04:05.023Z,102883.25
2022-12-01T06:06:35.518Z,102884.97
2022-12-01T06:09:03.878Z,102885.88
2022-12-01T06:11:32.353Z,102891.00
2022-12-01T06:14:01.761Z,102886.66
2022-12-01T06:16:30.126Z,102882.28
2022-12-01T06:18:58.521Z,102888.41
2022-12-01T06:21:26.899Z,102883.16
2022-12-01T06:23:57.326Z,102883.16
2022-12-01T06:26:25.660Z,102882.28
2022-12-01T06:28:54.033Z,102883.16
2022-12-01T06:31:22.483Z,102882.19
2022-12-01T06:33:51.010Z,102880.38
2022-12-01T06:36:19.368Z,102882.97
2022-12-01T06:38:47.998Z,102898.66
2022-12-01T06:41:16.345Z,102889.94
2022-12-01T06:43:44.787Z,102892.53
2022-12-01T06:46:13.431Z,102890.81
2022-12-01T06:48:41.867Z,102892.53
2022-12-01T06:51:11.112Z,102893.44
2022-12-01T06:53:39.625Z,102886.31
2022-12-01T06:56:08.181Z,102885.34
2022-12-01T06:58:36.641Z,102896.59
2022-12-01T07:01:10.418Z,102903.41
2022-12-01T07:03:40.912Z,102896.16
2022-12-01T07:06:09.925Z,102898.63
2022-12-01T07:08:39.073Z,102907.09
2022-12-01T07:11:12.567Z,102901.69
2022-12-01T07:13:42.504Z,102913.69
2022-12-01T07:16:13.004Z,102908.25
2022-12-01T07:18:42.944Z,102920.19
2022-12-01T07:21:13.626Z,102928.66
2022-12-01T07:23:42.888Z,102929.47
2022-12-01T07:26:14.152Z,102928.47
2022-12-01T07:28:43.034Z,102929.25
2022-12-01T07:31:13.845Z,102934.59
2022-12-01T07:33:42.835Z,102940.69
2022-12-01T07:36:12.802Z,102939.13
2022-12-01T07:38:42.858Z,102932.97
2022-12-01T07:41:16.387Z,102937.28
2022-12-01T07:43:45.299Z,102938.19
2022-12-01T07:46:22.192Z,102942.53
2022-12-01T07:48:53.768Z,102949.56
2022-12-01T07:51:24.429Z,102956.56
2022-12-01T07:53:54.345Z,102945.22
2022-12-01T07:56:23.600Z,102957.47
2022-12-01T07:58:53.828Z,102946.03
2022-12-01T08:01:24.930Z,102956.56
2022-12-01T08:03:57.293Z,102953.88
2022-12-01T08:06:26.718Z,102952.97
2022-12-01T08:08:57.808Z,102958.09
2022-12-01T08:11:29.594Z,102964.16
2022-12-01T08:13:58.099Z,102954.50
2022-12-01T08:16:26.565Z,102957.94
2022-12-01T08:18:59.376Z,102955.22
2022-12-01T08:21:27.754Z,102952.44
2022-12-01T08:23:59.226Z,102953.16
2022-12-01T08:26:27.657Z,102964.31
2022-12-01T08:28:56.848Z,102960.69
2022-12-01T08:31:28.487Z,102965.75
2022-12-01T08:33:57.934Z,102962.16
2022-12-01T08:36:26.648Z,102970.78
2022-12-01T08:38:56.824Z,102978.72
2022-12-01T08:41:25.564Z,102970.00
2022-12-01T08:43:59.038Z,102973.59
2022-12-01T08:46:34.258Z,102965.03
2022-12-01T08:49:05.036Z,102967.00
2022-12-01T08:51:33.638Z,102967.22
2022-12-01T08:54:02.487Z,102971.91
2022-12-01T08:56:35.238Z,102970.38
2022-12-01T08:59:04.291Z,102962.91
2022-12-01T09:01:35.784Z,102965.06
2022-12-01T09:04:06.186Z,102967.94
2022-12-01T09:06:40.736Z,102965.63
2022-12-01T09:09:12.423Z,102963.06
2022-12-01T09:11:43.638Z,102966.69
2022-12-01T09:14:13.463Z,102964.06
2022-12-01T09:16:43.431Z,102970.34
2022-12-01T09:19:13.470Z,102967.75
2022-12-01T09:21:43.437Z,102964.34
2022-12-01T09:24:14.219Z,102967.03
2022-12-01T09:26:45.667Z,102967.19
2022-12-01T09:29:15.822Z,102958.66
2022-12-01T09:31:49.816Z,102977.13
2022-12-01T09:34:19.849Z,102972.91
2022-12-01T09:36:48.951Z,102983.63
2022-12-01T09:39:21.063Z,102980.38
2022-12-01T09:42:04.984Z,102975.31
2022-12-01T09:44:45.574Z,102972.06
2022-12-01T09:47:34.591Z,102971.16
2022-12-01T09:50:16.564Z,102976.41
2022-12-01T09:52:53.588Z,102972.72
2022-12-01T09:55:24.775Z,102976.84
2022-12-01T09:57:55.760Z,102966.31
2022-12-01T10:00:35.634Z,102969.00
2022-12-01T10:03:45.054Z,102965.56
2022-12-01T10:06:28.434Z,102970.00
2022-12-01T10:09:10.869Z,102970.97
2022-12-01T10:11:45.199Z,102973.69
2022-12-01T10:14:20.768Z,102971.16
2022-12-01T10:17:28.302Z,102972.06
2022-12-01T10:19:56.946Z,102973.06
2022-12-01T10:22:41.082Z,102969.53
2022-12-01T10:25:26.860Z,102967.91
2022-12-01T10:28:12.808Z,102957.59
2022-12-01T10:30:50.603Z,102955.06
2022-12-01T10:33:26.243Z,102957.78
2022-12-01T10:35:54.791Z,102957.03
2022-12-01T10:38:31.825Z,102960.59
2022-12-01T10:41:07.543Z,102952.84
2022-12-01T10:43:49.368Z,102953.63
2022-12-01T10:46:24.548Z,102957.03
2022-12-01T10:48:58.557Z,102957.69
2022-12-01T10:51:28.215Z,102958.34
2022-12-01T10:54:07.866Z,102957.25
2022-12-01T10:56:41.390Z,102952.03
2022-12-01T10:59:32.977Z,102946.78
2022-12-01T11:02:03.505Z,102951.13
2022-12-01T11:04:35.493Z,102947.53
2022-12-01T11:07:04.310Z,102948.34
2022-12-01T11:09:32.795Z,102945.81
2022-12-01T11:12:04.964Z,102947.53
2022-12-01T11:14:53.172Z,102948.34
2022-12-01T11:17:44.927Z,102944.81
2022-12-01T11:20:31.694Z,102942.22
2022-12-01T11:23:24.574Z,102932.63
2022-12-01T11:25:55.943Z,102940.50
2022-12-01T11:28:25.005Z,102932.59
2022-12-01T11:31:07.169Z,102937.81
2022-12-01T11:33:53.996Z,102933.28
2022-12-01T11:36:28.494Z,102927.06
2022-12-01T11:38:59.508Z,102926.09
2022-12-01T11:41:39.478Z,102935.00
2022-12-01T11:47:25.234Z,102924.44
2022-12-01T11:49:59.788Z,102932.38
2022-12-01T11:52:45.205Z,102927.16
2022-12-01T11:55:13.666Z,102919.22
2022-12-01T11:57:45.933Z,102927.06
2022-12-01T12:00:20.825Z,102921.66
2022-12-01T12:02:58.287Z,102930.31
2022-12-01T12:05:49.836Z,102918.97
2022-12-01T12:08:52.720Z,102916.41
2022-12-01T12:11:27.870Z,102909.59
2022-12-01T12:14:16.612Z,102916.59
2022-12-01T12:17:04.239Z,102915.81
2022-12-01T12:20:08.500Z,102912.13
2022-12-01T12:22:44.761Z,102909.97
2022-12-01T12:25:35.154Z,102908.97
2022-12-01T12:28:35.371Z,102911.50
2022-12-01T12:31:06.771Z,102920.97
2022-12-01T12:34:02.446Z,102909.44
2022-12-01T12:37:18.647Z,102903.22
2022-12-01T12:40:08.568Z,102905.72
2022-12-01T12:42:57.484Z,102904.84
2022-12-01T12:46:00.262Z,102909.25
2022-12-01T12:49:12.144Z,102910.06
2022-12-01T12:51:49.378Z,102913.47
2022-12-01T12:54:31.976Z,102917.81
2022-12-01T12:57:07.497Z,102909.00
2022-12-01T12:59:53.886Z,102913.22
2022-12-01T13:02:31.849Z,102908.91
2022-12-01T13:05:12.767Z,102916.00
2022-12-01T13:08:06.204Z,102915.94
2022-12-01T13:10:44.600Z,102915.84
2022-12-01T13:13:44.491Z,102910.44
2022-12-01T13:16:21.712Z,102915.50
2022-12-01T13:18:57.422Z,102918.72
2022-12-01T13:21:37.970Z,102914.41
2022-12-01T13:24:07.830Z,102917.03
2022-12-01T13:26:42.216Z,102917.13
2022-12-01T13:29:17.136Z,102911.06
2022-12-01T13:31:49.762Z,102914.56
2022-12-01T13:34:40.978Z,102892.03
2022-12-01T13:37:10.920Z,102890.25
2022-12-01T13:39:41.707Z,102898.88
2022-12-01T13:42:25.549Z,102899.81
2022-12-01T13:45:09.630Z,102909.44
2022-12-01T13:47:49.279Z,102917.13
2022-12-01T13:50:36.634Z,102917.13
2022-12-01T13:53:14.835Z,102916.19
2022-12-01T13:56:01.196Z,102915.22
2022-12-01T13:58:35.585Z,102916.94
2022-12-01T14:01:22.836Z,102917.81
2022-12-01T14:03:54.067Z,102918.72
2022-12-01T14:06:25.317Z,102916.03
2022-12-01T14:09:00.496Z,102921.28
2022-12-01T14:11:30.836Z,102915.22
2022-12-01T14:14:12.243Z,102928.38
2022-12-01T14:16:47.100Z,102921.44
2022-12-01T14:19:46.191Z,102926.75
2022-12-01T14:22:33.695Z,102924.22
2022-12-01T14:25:05.623Z,102912.06
2022-12-01T14:27:44.018Z,102923.16
2022-12-01T14:30:46.873Z,102916.03
2022-12-01T14:33:45.913Z,102911.59
2022-12-01T14:36:21.145Z,102909.72
2022-12-01T14:39:17.786Z,102907.91
2022-12-01T14:41:56.804Z,102899.97
2022-12-01T14:44:38.068Z,102903.31
2022-12-01T14:47:12.580Z,102900.72
2022-12-01T14:50:13.382Z,102894.59
2022-12-01T14:52:49.555Z,102879.81
2022-12-01T14:55:43.389Z,102884.03
2022-12-01T14:58:20.025Z,102895.28
2022-12-01T15:01:15.128Z,102894.16
2022-12-01T15:03:56.881Z,102899.19
2022-12-01T15:06:27.292Z,102896.56
2022-12-01T15:09:34.460Z,102893.84
2022-12-01T15:12:09.295Z,102899.81
2022-12-01T15:14:49.638Z,102898.81
2022-12-01T15:17:34.804Z,102903.06
2022-12-01T15:20:05.240Z,102907.19
2022-12-01T15:22:35.321Z,102894.03
2022-12-01T15:25:13.437Z,102905.28
2022-12-01T15:27:43.879Z,102907.00
2022-12-01T15:30:15.491Z,102903.31
2022-12-01T15:32:46.377Z,102911.88
2022-12-01T15:35:22.916Z,102901.94
2022-12-01T15:37:54.365Z,102908.78
2022-12-01T15:43:25.550Z,102920.66
2022-12-01T15:45:57.906Z,102913.56
2022-12-01T15:48:27.106Z,102926.72
2022-12-01T15:51:00.900Z,102930.03
2022-12-01T15:53:33.566Z,102928.03
2022-12-01T15:56:08.824Z,102915.59
2022-12-01T15:58:44.255Z,102919.84
2022-12-01T16:01:19.042Z,102920.53
2022-12-01T16:04:04.691Z,102925.75
2022-12-01T16:06:38.998Z,102923.25
2022-12-01T16:09:21.321Z,102924.16
2022-12-01T16:12:26.303Z,102923.97
2022-12-01T16:15:01.952Z,102927.19
2022-12-01T16:17:44.261Z,102922.78
2022-12-01T16:20:22.800Z,102924.50
2022-12-01T16:23:04.161Z,102926.22
2022-12-01T16:25:45.811Z,102924.50
2022-12-01T16:28:36.121Z,102934.03
2022-12-01T16:31:06.433Z,102919.28
2022-12-01T16:33:38.395Z,102927.00
2022-12-01T16:36:07.057Z,102917.38
2022-12-01T16:38:36.157Z,102919.16
2022-12-01T16:41:38.400Z,102914.78
2022-12-01T16:44:27.719Z,102916.34
2022-12-01T16:46:55.842Z,102912.06
2022-12-01T16:49:24.218Z,102918.16
2022-12-01T16:51:57.041Z,102919.69
2022-12-01T16:54:26.694Z,102919.50
2022-12-01T16:56:55.759Z,102916.09
2022-12-01T16:59:25.135Z,102920.41
2022-12-01T17:01:54.857Z,102922.81
2022-12-01T17:04:24.367Z,102925.31
2022-12-01T17:06:52.879Z,102929.66
2022-12-01T17:09:24.462Z,102919.22
2022-12-01T17:11:56.860Z,102926.25
2022-12-01T17:14:25.942Z,102928.75
2022-12-01T17:16:57.431Z,102930.44
2022-12-01T17:19:26.094Z,102927.78
2022-12-01T17:21:55.928Z,102934.78
2022-12-01T17:24:25.942Z,102940.81
2022-12-01T17:26:54.302Z,102945.94
2022-12-01T17:29:26.444Z,102939.72
2022-12-01T17:31:54.789Z,102942.44
2022-12-01T17:34:26.589Z,102942.22
2022-12-01T17:36:54.971Z,102944.63
2022-12-01T17:39:25.250Z,102948.22
2022-12-01T17:41:55.710Z,102946.25
2022-12-01T17:44:24.093Z,102945.25
2022-12-01T17:46:52.652Z,102949.56
2022-12-01T17:49:21.166Z,102948.75
2022-12-01T17:51:49.839Z,102951.28
2022-12-01T17:54:25.005Z,102950.47
2022-12-01T17:56:54.566Z,102950.38
2022-12-01T17:59:23.192Z,102945.06
2022-12-01T18:01:51.698Z,102957.19
2022-12-01T18:04:20.266Z,102957.09
2022-12-01T18:06:53.799Z,102952.81
2022-12-01T18:09:22.851Z,102955.41
2022-12-01T18:11:51.315Z,102955.41
2022-12-01T18:14:21.191Z,102961.53
2022-12-01T18:16:49.578Z,102958.81
2022-12-01T18:19:18.481Z,102959.69
2022-12-01T18:21:46.959Z,102964.91
2022-12-01T18:24:17.801Z,102965.84
2022-12-01T18:26:46.212Z,102961.53
2022-12-01T18:29:26.386Z,102964.13
2022-12-01T18:31:57.491Z,102964.22
2022-12-01T18:34:29.636Z,102962.63
2022-12-01T18:36:58.461Z,102956.50
2022-12-01T18:39:26.947Z,102960.00
2022-12-01T18:41:58.573Z,102964.41
2022-12-01T18:44:27.230Z,102955.78
2022-12-01T18:46:57.394Z,102958.28
2022-12-01T18:49:26.027Z,102956.56
2022-12-01T18:51:54.543Z,102961.00
2022-12-01T18:54:23.159Z,102958.28
2022-12-01T18:56:53.675Z,102963.50
2022-12-01T18:59:22.148Z,102955.69
2022-12-01T19:01:55.020Z,102956.50
2022-12-01T19:04:24.301Z,102950.38
2022-12-01T19:06:52.737Z,102939.94
2022-12-01T19:09:22.909Z,102940.66
2022-12-01T19:11:59.704Z,102946.75
2022-12-01T19:14:29.161Z,102957.19
2022-12-01T19:16:57.687Z,102945.88
2022-12-01T19:19:26.549Z,102943.25
2022-12-01T19:21:54.984Z,102939.75
2022-12-01T19:24:26.904Z,102943.06
2022-12-01T19:26:56.796Z,102942.06
2022-12-01T19:29:25.938Z,102947.28
2022-12-01T19:31:54.405Z,102955.00
2022-12-01T19:34:25.038Z,102954.09
2022-12-01T19:36:53.924Z,102950.69
2022-12-01T19:39:23.499Z,102954.19
2022-12-01T19:41:51.967Z,102949.72
2022-12-01T19:44:25.268Z,102947.09
2022-12-01T19:46:54.155Z,102944.38
2022-12-01T19:49:22.611Z,102945.28
2022-12-01T19:51:51.194Z,102945.16
2022-12-01T19:54:20.165Z,102942.56
2022-12-01T19:56:49.361Z,102946.88
2022-12-01T19:59:18.100Z,102944.06
2022-12-01T20:01:46.711Z,102944.00
2022-12-01T20:04:18.374Z,102938.56
2022-12-01T20:06:46.682Z,102949.00
2022-12-01T20:09:14.984Z,102945.41
2022-12-01T20:11:43.442Z,102943.41
2022-12-01T20:14:13.023Z,102940.69
2022-12-01T20:16:41.404Z,102940.59
2022-12-01T20:19:10.469Z,102936.16
2022-12-01T20:21:42.546Z,102933.28
2022-12-01T20:24:14.771Z,102942.81
2022-12-01T20:26:50.969Z,102939.09
2022-12-01T20:29:28.282Z,102944.22
2022-12-01T20:31:58.701Z,102941.50
2022-12-01T20:34:31.511Z,102935.28
2022-12-01T20:37:00.514Z,102950.81
2022-12-01T20:39:32.015Z,102945.59
2022-12-01T20:42:01.176Z,102938.59
2022-12-01T20:44:29.446Z,102939.38
2022-12-01T20:46:57.916Z,102939.22
2022-12-01T20:49:26.629Z,102939.78
2022-12-01T20:51:57.807Z,102950.13
2022-12-01T20:54:28.387Z,102932.78
2022-12-01T20:56:58.441Z,102945.59
2022-12-01T20:59:27.269Z,102943.72
2022-12-01T21:01:56.105Z,102933.28
2022-12-01T21:04:24.508Z,102932.38
2022-12-01T21:06:59.143Z,102944.59
2022-12-01T21:09:27.660Z,102950.81
2022-12-01T21:12:17.283Z,102934.19
2022-12-01T21:14:52.954Z,102941.00
2022-12-01T21:17:36.067Z,102944.22
2022-12-01T21:20:12.958Z,102943.09
2022-12-01T21:22:41.806Z,102939.50
2022-12-01T21:25:15.468Z,102928.97
2022-12-01T21:27:43.831Z,102942.69
2022-12-01T21:30:22.253Z,102941.38
2022-12-01T21:32:50.793Z,102939.38
2022-12-01T21:35:27.101Z,102932.16
2022-12-01T21:38:01.992Z,102932.06
2022-12-01T21:40:31.287Z,102936.16
2022-12-01T21:43:38.360Z,102943.19
2022-12-01T21:46:18.117Z,102949.28
2022-12-01T21:48:49.490Z,102945.78
2022-12-01T21:51:23.309Z,102942.19
2022-12-01T21:53:55.870Z,102943.06
2022-12-01T21:56:27.279Z,102950.78
2022-12-01T21:59:02.700Z,102946.38
2022-12-01T22:01:32.852Z,102939.94
2022-12-01T22:04:15.367Z,102949.38
2022-12-01T22:06:49.917Z,102942.16
2022-12-01T22:09:27.373Z,102942.94
2022-12-01T22:12:21.523Z,102934.13
2022-12-01T22:14:50.515Z,102935.00
2022-12-01T22:17:20.884Z,102936.84
2022-12-01T22:19:57.139Z,102925.28
2022-12-01T22:22:28.180Z,102924.28
2022-12-01T22:25:01.593Z,102925.19
2022-12-01T22:27:43.864Z,102925.06
2022-12-01T22:30:23.538Z,102926.91
2022-12-01T22:33:05.736Z,102929.63
2022-12-01T22:35:45.647Z,102921.88
2022-12-01T22:38:22.131Z,102918.38
2022-12-01T22:41:12.414Z,102923.59
2022-12-01T22:43:57.472Z,102919.09
2022-12-01T22:46:40.054Z,102914.56
2022-12-01T22:49:19.513Z,102909.44
2022-12-01T22:51:53.741Z,102914.66
2022-12-01T22:54:42.922Z,102908.44
2022-12-01T22:57:23.914Z,102917.88
2022-12-01T22:59:54.201Z,102909.28
2022-12-01T23:02:27.296Z,102917.97
2022-12-01T23:05:19.711Z,102920.56
2022-12-01T23:07:50.963Z,102918.09
2022-12-01T23:10:25.424Z,102912.75
2022-12-01T23:12:57.137Z,102913.56
2022-12-01T23:15:27.877Z,102913.66
2022-12-01T23:17:56.734Z,102917.88
2022-12-01T23:20:31.832Z,102908.03
2022-12-01T23:23:03.950Z,102909.66
2022-12-01T23:25:34.944Z,102914.75
2022-12-01T23:28:06.477Z,102917.22
2022-12-01T23:30:42.839Z,102917.03
2022-12-01T23:33:23.221Z,102906.41
2022-12-01T23:36:02.063Z,102903.69
2022-12-01T23:38:38.759Z,102902.69
2022-12-01T23:41:12.780Z,102901.56
2022-12-01T23:43:44.377Z,102897.97
2022-12-01T23:46:16.590Z,102895.38
2022-12-01T23:49:07.316Z,102901.28
2022-12-01T23:51:38.578Z,102906.38
2022-12-01T23:54:28.858Z,102896.66
2022-12-01T23:57:21.933Z,102895.72
2022-12-01T23:59:54.567Z,102898.34
